createdAt,value
2019-04-23T00:01:05.187Z,24.05
2019-04-23T00:01:50.964Z,24.08
2019-04-23T00:02:50.707Z,24.08
2019-04-23T00:03:47.540Z,24.14
2019-04-23T00:04:48.025Z,24.05
2019-04-23T00:05:48.127Z,24.08
2019-04-23T00:06:57.441Z,24.09
2019-04-23T00:08:04.570Z,24.12
2019-04-23T00:09:47.050Z,24.06
2019-04-23T00:10:55.451Z,24.05
2019-04-23T00:12:50.952Z,24.04
2019-04-23T00:13:50.279Z,23.97
2019-04-23T00:14:55.000Z,23.96
2019-04-23T00:15:55.302Z,23.93
2019-04-23T00:16:54.468Z,23.92
2019-04-23T00:18:46.725Z,24.02
2019-04-23T00:19:47.337Z,23.93
2019-04-23T00:20:54.947Z,23.97
2019-04-23T00:22:13.840Z,23.86
2019-04-23T00:22:54.741Z,23.86
2019-04-23T00:23:53.385Z,23.92
2019-04-23T00:25:53.763Z,23.92
2019-04-23T00:26:52.139Z,23.92
2019-04-23T00:27:49.879Z,23.94
2019-04-23T00:29:56.107Z,23.86
2019-04-23T00:31:56.181Z,23.75
2019-04-23T00:32:48.080Z,23.87
2019-04-23T00:34:56.456Z,23.79
2019-04-23T00:35:53.387Z,23.77
2019-04-23T00:36:51.815Z,23.78
2019-04-23T00:37:47.704Z,23.75
2019-04-23T00:39:01.358Z,23.69
2019-04-23T00:40:53.943Z,23.69
2019-04-23T00:41:54.589Z,23.63
2019-04-23T00:42:47.820Z,23.59
2019-04-23T00:43:59.495Z,23.69
2019-04-23T00:44:54.296Z,23.68
2019-04-23T00:45:59.327Z,23.62
2019-04-23T00:46:48.651Z,23.59
2019-04-23T00:47:49.635Z,23.67
2019-04-23T00:50:02.155Z,23.60
2019-04-23T00:51:50.122Z,23.62
2019-04-23T00:52:50.129Z,23.60
2019-04-23T00:53:54.711Z,23.59
2019-04-23T00:54:58.019Z,23.54
2019-04-23T00:56:54.435Z,23.45
2019-04-23T00:57:50.531Z,23.59
2019-04-23T00:58:57.906Z,23.47
2019-04-23T01:00:01.904Z,23.42
2019-04-23T01:02:53.315Z,23.44
2019-04-23T01:03:55.231Z,23.44
2019-04-23T01:04:58.551Z,23.39
2019-04-23T01:06:52.321Z,23.38
2019-04-23T01:07:51.532Z,23.35
2019-04-23T01:08:50.679Z,23.32
2019-04-23T01:09:56.225Z,23.31
2019-04-23T01:10:59.850Z,23.35
2019-04-23T01:11:56.647Z,23.23
2019-04-23T01:12:51.205Z,23.25
2019-04-23T01:14:50.062Z,23.29
2019-04-23T01:15:53.683Z,23.23
2019-04-23T01:16:48.410Z,23.15
2019-04-23T01:17:53.127Z,23.22
2019-04-23T01:18:54.643Z,23.16
2019-04-23T01:19:49.556Z,23.14
2019-04-23T01:20:52.802Z,23.23
2019-04-23T01:21:30.781Z,23.01
2019-04-23T01:22:31.570Z,23.15
2019-04-23T01:23:37.705Z,23.06
2019-04-23T01:24:34.498Z,23.07
2019-04-23T01:25:43.643Z,23.06
2019-04-23T01:26:57.557Z,23.04
2019-04-23T01:28:09.366Z,23.07
2019-04-23T01:28:55.935Z,23.09
2019-04-23T01:29:58.614Z,23.09
2019-04-23T01:31:58.535Z,22.96
2019-04-23T01:32:54.817Z,23.06
2019-04-23T01:33:56.715Z,23.04
2019-04-23T01:35:09.433Z,23.00
2019-04-23T01:36:09.708Z,23.03
2019-04-23T01:36:56.136Z,22.99
2019-04-23T01:37:52.369Z,23.00
2019-04-23T01:39:00.288Z,23.01
2019-04-23T01:39:58.127Z,22.99
2019-04-23T01:40:53.826Z,22.96
2019-04-23T01:42:08.487Z,22.99
2019-04-23T01:43:07.971Z,22.99
2019-04-23T01:43:50.561Z,23.01
2019-04-23T01:45:01.403Z,22.94
2019-04-23T01:45:56.242Z,22.91
2019-04-23T01:47:00.871Z,22.96
2019-04-23T01:47:54.830Z,22.89
2019-04-23T01:48:58.223Z,22.86
2019-04-23T01:50:01.561Z,22.82
2019-04-23T01:52:01.645Z,22.91
2019-04-23T01:53:00.747Z,22.85
2019-04-23T01:53:57.315Z,22.86
2019-04-23T01:55:01.550Z,22.86
2019-04-23T01:56:03.172Z,22.89
2019-04-23T01:56:56.713Z,22.82
2019-04-23T01:58:05.831Z,22.82
2019-04-23T01:59:02.413Z,22.79
2019-04-23T02:00:03.322Z,22.79
2019-04-23T02:01:58.483Z,22.74
2019-04-23T02:04:06.388Z,22.75
2019-04-23T02:06:03.205Z,22.75
2019-04-23T02:07:03.118Z,22.78
2019-04-23T02:09:00.589Z,22.72
2019-04-23T02:11:04.783Z,22.63
2019-04-23T02:12:01.042Z,22.64
2019-04-23T02:13:01.312Z,22.75
2019-04-23T02:15:10.277Z,22.66
2019-04-23T02:16:10.483Z,22.72
2019-04-23T02:17:01.217Z,22.72
2019-04-23T02:18:10.449Z,22.66
2019-04-23T02:19:18.214Z,22.67
2019-04-23T02:21:12.942Z,22.60
2019-04-23T02:22:01.250Z,22.59
2019-04-23T02:23:07.374Z,22.66
2019-04-23T02:23:55.169Z,22.60
2019-04-23T02:25:03.580Z,22.63
2019-04-23T02:26:55.534Z,22.59
2019-04-23T02:28:05.018Z,22.59
2019-04-23T02:30:15.821Z,22.56
2019-04-23T02:31:21.324Z,22.59
2019-04-23T02:32:03.333Z,22.54
2019-04-23T02:34:12.189Z,22.56
2019-04-23T02:37:19.359Z,22.52
2019-04-23T02:39:03.254Z,22.52
2019-04-23T02:40:16.098Z,22.45
2019-04-23T02:43:13.100Z,22.46
2019-04-23T02:44:11.453Z,22.49
2019-04-23T02:45:03.054Z,22.51
2019-04-23T02:50:29.201Z,22.36
2019-04-23T02:51:04.913Z,22.42
2019-04-23T02:52:09.910Z,22.35
2019-04-23T02:54:15.641Z,22.38
2019-04-23T02:58:12.182Z,22.35
2019-04-23T03:00:22.544Z,22.35
2019-04-23T03:02:30.242Z,22.33
2019-04-23T03:03:08.153Z,22.27
2019-04-23T03:04:14.949Z,22.31
2019-04-23T03:05:01.905Z,22.20
2019-04-23T03:06:09.644Z,22.30
2019-04-23T03:07:59.963Z,22.29
2019-04-23T03:09:23.735Z,22.31
2019-04-23T03:12:18.407Z,22.26
2019-04-23T03:23:19.272Z,22.14
2019-04-23T03:24:26.014Z,22.15
2019-04-23T03:25:12.908Z,22.14
2019-04-23T03:26:15.607Z,22.15
2019-04-23T03:27:17.131Z,22.09
2019-04-23T03:28:11.882Z,22.06
2019-04-23T03:35:10.493Z,22.14
2019-04-23T03:38:56.300Z,21.99
2019-04-23T03:40:13.923Z,22.04
2019-04-23T03:43:18.943Z,22.01
2019-04-23T03:44:05.198Z,21.99
2019-04-23T03:45:15.989Z,22.05
2019-04-23T03:47:13.827Z,22.06
2019-04-23T03:48:17.927Z,22.08
2019-04-23T03:49:05.553Z,22.02
2019-04-23T03:51:03.046Z,21.99
2019-04-23T03:52:16.934Z,21.98
2019-04-23T03:53:03.555Z,21.96
2019-04-23T03:54:26.332Z,21.99
2019-04-23T03:55:11.733Z,21.93
2019-04-23T03:58:15.971Z,21.98
2019-04-23T03:59:11.364Z,21.96
2019-04-23T04:00:12.544Z,21.96
2019-04-23T04:01:13.961Z,21.93
2019-04-23T04:05:10.261Z,21.91
2019-04-23T04:06:13.875Z,21.90
2019-04-23T04:07:21.969Z,21.93
2019-04-23T04:08:13.277Z,21.91
2019-04-23T04:09:23.333Z,21.91
2019-04-23T04:10:11.544Z,21.85
2019-04-23T04:11:10.924Z,21.96
2019-04-23T04:12:14.305Z,21.94
2019-04-23T04:13:13.160Z,21.89
2019-04-23T04:15:24.436Z,21.93
2019-04-23T04:17:15.948Z,21.94
2019-04-23T04:18:21.283Z,21.96
2019-04-23T04:22:21.502Z,21.86
2019-04-23T04:23:19.506Z,21.85
2019-04-23T04:24:29.549Z,21.81
2019-04-23T04:27:22.167Z,21.89
2019-04-23T04:29:32.466Z,21.82
2019-04-23T04:30:19.218Z,21.81
2019-04-23T04:31:16.275Z,21.71
2019-04-23T04:32:14.900Z,21.83
2019-04-23T04:33:26.248Z,21.83
2019-04-23T04:34:32.603Z,21.68
2019-04-23T04:35:16.177Z,21.79
2019-04-23T04:36:14.258Z,21.82
2019-04-23T04:37:37.768Z,21.86
2019-04-23T04:39:00.651Z,21.75
2019-04-23T04:42:10.429Z,21.82
2019-04-23T04:45:12.250Z,21.82
2019-04-23T04:48:01.299Z,21.75
2019-04-23T04:49:16.674Z,21.86
2019-04-23T04:52:22.681Z,21.81
2019-04-23T04:54:13.917Z,21.68
2019-04-23T04:56:18.919Z,21.70
2019-04-23T04:58:12.684Z,21.70
2019-04-23T04:59:24.566Z,21.71
2019-04-23T05:02:14.554Z,21.83
2019-04-23T05:03:19.251Z,21.83
2019-04-23T05:04:10.938Z,21.83
2019-04-23T05:05:31.376Z,21.83
2019-04-23T05:06:18.559Z,21.79
2019-04-23T05:07:11.179Z,21.93
2019-04-23T05:09:17.001Z,21.86
2019-04-23T05:10:16.586Z,21.86
2019-04-23T05:12:18.475Z,21.83
2019-04-23T05:13:30.219Z,21.81
2019-04-23T05:15:16.557Z,21.90
2019-04-23T05:16:07.957Z,21.94
2019-04-23T05:17:28.106Z,21.82
2019-04-23T05:19:22.297Z,21.83
2019-04-23T05:22:10.184Z,21.91
2019-04-23T05:23:16.374Z,21.91
2019-04-23T05:25:05.512Z,21.85
2019-04-23T05:26:13.963Z,21.85
2019-04-23T05:27:04.743Z,21.93
2019-04-23T05:28:28.526Z,21.86
2019-04-23T05:29:04.855Z,21.86
2019-04-23T05:30:07.828Z,21.94
2019-04-23T05:31:05.797Z,21.86
2019-04-23T05:32:10.103Z,21.89
2019-04-23T05:33:12.530Z,21.94
2019-04-23T05:34:02.914Z,21.93
2019-04-23T05:35:16.881Z,21.94
2019-04-23T05:37:12.957Z,21.94
2019-04-23T05:40:15.637Z,21.93
2019-04-23T05:41:09.970Z,21.93
2019-04-23T05:42:04.325Z,21.89
2019-04-23T05:43:03.509Z,21.91
2019-04-23T05:44:10.858Z,21.96
2019-04-23T05:45:06.111Z,21.96
2019-04-23T05:46:04.454Z,21.96
2019-04-23T05:50:11.508Z,22.04
2019-04-23T05:51:16.358Z,21.98
2019-04-23T05:52:14.820Z,22.02
2019-04-23T05:53:11.492Z,22.02
2019-04-23T05:54:08.927Z,21.99
2019-04-23T05:56:08.491Z,21.98
2019-04-23T05:57:01.700Z,22.05
2019-04-23T06:00:07.694Z,22.05
2019-04-23T06:01:25.173Z,22.04
2019-04-23T06:02:19.720Z,22.01
2019-04-23T06:03:11.300Z,22.04
2019-04-23T06:05:13.108Z,22.06
2019-04-23T06:06:11.208Z,22.05
2019-04-23T06:07:28.965Z,22.09
2019-04-23T06:08:12.872Z,22.14
2019-04-23T06:09:09.120Z,22.09
2019-04-23T06:10:04.959Z,22.06
2019-04-23T06:11:15.159Z,22.11
2019-04-23T06:13:04.730Z,22.20
2019-04-23T06:14:15.159Z,22.15
2019-04-23T06:15:05.036Z,22.24
2019-04-23T06:16:10.475Z,22.31
2019-04-23T06:18:11.646Z,22.36
2019-04-23T06:20:10.146Z,22.36
2019-04-23T06:21:12.286Z,22.45
2019-04-23T06:23:18.161Z,22.60
2019-04-23T06:24:19.894Z,22.49
2019-04-23T06:25:12.539Z,22.60
2019-04-23T06:26:20.166Z,22.60
2019-04-23T06:27:06.779Z,22.63
2019-04-23T06:28:14.595Z,22.64
2019-04-23T06:29:16.223Z,22.67
2019-04-23T06:30:09.685Z,22.67
2019-04-23T06:31:09.790Z,22.76
2019-04-23T06:32:07.906Z,22.61
2019-04-23T06:33:18.058Z,22.75
2019-04-23T06:34:15.438Z,22.70
2019-04-23T06:35:06.668Z,22.74
2019-04-23T06:38:32.762Z,22.91
2019-04-23T06:39:02.933Z,22.85
2019-04-23T06:40:10.130Z,22.93
2019-04-23T06:41:13.177Z,22.93
2019-04-23T06:42:08.051Z,22.97
2019-04-23T06:43:11.530Z,22.99
2019-04-23T06:44:15.975Z,23.07
2019-04-23T06:45:26.385Z,23.04
2019-04-23T06:46:05.685Z,23.03
2019-04-23T06:47:07.000Z,23.04
2019-04-23T06:49:11.668Z,23.11
2019-04-23T06:50:08.203Z,23.03
2019-04-23T06:51:12.812Z,23.09
2019-04-23T06:52:15.247Z,23.18
2019-04-23T06:54:12.353Z,23.14
2019-04-23T06:55:12.274Z,23.19
2019-04-23T06:56:13.963Z,23.18
2019-04-23T06:57:15.326Z,23.21
2019-04-23T06:58:17.055Z,23.29
2019-04-23T06:59:11.979Z,23.32
2019-04-23T07:00:06.291Z,23.34
2019-04-23T07:01:05.575Z,23.35
2019-04-23T07:02:11.820Z,23.32
2019-04-23T07:03:18.182Z,23.41
2019-04-23T07:04:13.761Z,23.34
2019-04-23T07:05:10.432Z,23.44
2019-04-23T07:07:31.606Z,23.45
2019-04-23T07:08:20.453Z,23.50
2019-04-23T07:09:12.072Z,23.54
2019-04-23T07:10:03.966Z,23.44
2019-04-23T07:11:18.901Z,23.53
2019-04-23T07:12:08.899Z,23.59
2019-04-23T07:13:18.816Z,23.60
2019-04-23T07:14:24.408Z,23.63
2019-04-23T07:15:30.811Z,23.60
2019-04-23T07:16:09.488Z,23.57
2019-04-23T07:17:18.512Z,23.67
2019-04-23T07:18:10.070Z,23.67
2019-04-23T07:20:06.913Z,23.68
2019-04-23T07:21:13.478Z,23.71
2019-04-23T07:22:14.498Z,23.64
2019-04-23T07:23:13.546Z,23.74
2019-04-23T07:24:08.590Z,23.74
2019-04-23T07:25:08.243Z,23.77
2019-04-23T07:26:15.500Z,23.74
2019-04-23T07:27:11.805Z,23.78
2019-04-23T07:28:16.715Z,23.81
2019-04-23T07:29:08.097Z,23.74
2019-04-23T07:30:13.666Z,23.77
2019-04-23T07:31:14.074Z,23.84
2019-04-23T07:32:05.321Z,23.87
2019-04-23T07:33:11.218Z,23.92
2019-04-23T07:35:13.654Z,23.89
2019-04-23T07:36:15.979Z,23.93
2019-04-23T07:38:21.914Z,23.86
2019-04-23T07:41:19.464Z,23.90
2019-04-23T07:43:08.766Z,23.94
2019-04-23T07:44:23.095Z,23.96
2019-04-23T07:45:12.454Z,24.00
2019-04-23T07:49:11.402Z,24.02
2019-04-23T07:51:08.669Z,24.09
2019-04-23T07:53:18.902Z,24.15
2019-04-23T07:54:17.618Z,24.09
2019-04-23T07:55:22.011Z,24.12
2019-04-23T07:59:14.308Z,24.19
2019-04-23T08:00:13.660Z,24.11
2019-04-23T08:01:13.793Z,24.09
2019-04-23T08:02:14.135Z,24.21
2019-04-23T08:03:17.765Z,24.18
2019-04-23T08:04:09.180Z,24.16
2019-04-23T08:05:15.634Z,24.18
2019-04-23T08:06:10.198Z,24.21
2019-04-23T08:07:16.409Z,24.18
2019-04-23T08:08:07.291Z,24.15
2019-04-23T08:09:09.123Z,24.23
2019-04-23T08:11:30.805Z,24.24
2019-04-23T08:12:19.176Z,24.29
2019-04-23T08:13:15.589Z,24.33
2019-04-23T08:14:08.528Z,24.23
2019-04-23T08:15:14.602Z,24.26
2019-04-23T08:16:23.035Z,24.33
2019-04-23T08:17:14.413Z,24.34
2019-04-23T08:18:13.450Z,24.34
2019-04-23T08:19:11.114Z,24.31
2019-04-23T08:20:32.231Z,24.31
2019-04-23T08:21:12.034Z,24.31
2019-04-23T08:22:20.076Z,24.37
2019-04-23T08:23:13.761Z,24.36
2019-04-23T08:24:35.931Z,24.39
2019-04-23T08:25:15.816Z,24.34
2019-04-23T08:26:22.186Z,24.46
2019-04-23T08:27:24.081Z,24.45
2019-04-23T08:28:13.623Z,24.41
2019-04-23T08:30:04.296Z,24.42
2019-04-23T08:31:15.138Z,24.48
2019-04-23T08:32:18.623Z,24.48
2019-04-23T08:33:12.263Z,24.46
2019-04-23T08:36:23.875Z,24.46
2019-04-23T08:37:36.380Z,24.52
2019-04-23T08:39:10.301Z,24.53
2019-04-23T08:40:13.328Z,24.56
2019-04-23T08:42:33.351Z,24.53
2019-04-23T08:43:18.045Z,24.55
2019-04-23T08:44:21.616Z,24.55
2019-04-23T08:45:15.304Z,24.64
2019-04-23T08:46:13.488Z,24.63
2019-04-23T08:48:27.546Z,24.60
2019-04-23T08:49:22.649Z,24.63
2019-04-23T08:50:14.985Z,24.63
2019-04-23T08:51:20.995Z,24.63
2019-04-23T08:52:15.182Z,24.59
2019-04-23T08:53:31.375Z,24.56
2019-04-23T08:54:14.815Z,24.60
2019-04-23T08:55:13.666Z,24.60
2019-04-23T08:56:09.034Z,24.68
2019-04-23T08:57:16.371Z,24.59
2019-04-23T08:58:13.548Z,24.68
2019-04-23T08:59:14.943Z,24.66
2019-04-23T09:00:14.006Z,24.67
2019-04-23T09:01:13.621Z,24.70
2019-04-23T09:02:22.888Z,24.77
2019-04-23T09:03:20.356Z,24.74
2019-04-23T09:04:16.859Z,24.68
2019-04-23T09:05:34.381Z,24.71
2019-04-23T09:06:10.830Z,24.71
2019-04-23T09:07:16.957Z,24.71
2019-04-23T09:09:13.133Z,24.75
2019-04-23T09:11:30.842Z,24.75
2019-04-23T09:12:21.580Z,24.68
2019-04-23T09:13:40.215Z,24.83
2019-04-23T09:14:08.811Z,24.82
2019-04-23T09:15:18.704Z,24.79
2019-04-23T09:16:13.658Z,24.74
2019-04-23T09:18:15.805Z,24.82
2019-04-23T09:19:16.493Z,24.70
2019-04-23T09:20:23.446Z,24.79
2019-04-23T09:21:14.054Z,24.79
2019-04-23T09:22:22.945Z,24.87
2019-04-23T09:23:13.559Z,24.80
2019-04-23T09:24:11.828Z,24.87
2019-04-23T09:25:20.317Z,24.89
2019-04-23T09:26:06.161Z,24.84
2019-04-23T09:28:23.864Z,24.84
2019-04-23T09:29:12.025Z,24.89
2019-04-23T09:30:16.773Z,24.83
2019-04-23T09:31:18.883Z,24.83
2019-04-23T09:32:22.253Z,24.82
2019-04-23T09:33:13.911Z,24.89
2019-04-23T09:34:09.531Z,24.92
2019-04-23T09:36:18.464Z,24.92
2019-04-23T09:37:18.827Z,24.87
2019-04-23T09:38:11.578Z,24.86
2019-04-23T09:39:18.202Z,24.87
2019-04-23T09:40:27.437Z,24.94
2019-04-23T09:41:22.155Z,24.89
2019-04-23T09:42:14.771Z,24.92
2019-04-23T09:43:12.048Z,24.90
2019-04-23T09:45:15.568Z,24.89
2019-04-23T09:46:17.657Z,24.93
2019-04-23T09:47:19.867Z,24.92
2019-04-23T09:48:11.779Z,24.93
2019-04-23T09:49:20.961Z,24.92
2019-04-23T09:50:16.733Z,24.89
2019-04-23T09:53:26.876Z,24.99
2019-04-23T09:54:18.069Z,25.02
2019-04-23T09:55:24.609Z,24.90
2019-04-23T10:01:19.569Z,24.93
2019-04-23T10:02:06.704Z,24.99
2019-04-23T10:03:07.615Z,24.97
2019-04-23T10:04:03.227Z,24.97
2019-04-23T10:05:01.227Z,25.04
2019-04-23T10:05:57.232Z,24.97
2019-04-23T10:07:01.577Z,25.02
2019-04-23T10:07:58.641Z,24.98
2019-04-23T10:08:53.621Z,24.99
2019-04-23T10:09:49.807Z,25.02
2019-04-23T10:10:49.184Z,25.01
2019-04-23T10:11:49.293Z,25.04
2019-04-23T10:12:50.146Z,25.02
2019-04-23T10:13:50.245Z,25.08
2019-04-23T10:14:59.338Z,25.09
2019-04-23T10:15:50.312Z,25.07
2019-04-23T10:16:49.383Z,25.01
2019-04-23T10:17:50.000Z,24.97
2019-04-23T10:18:49.167Z,25.01
2019-04-23T10:19:48.750Z,25.07
2019-04-23T10:20:49.041Z,25.09
2019-04-23T10:21:49.177Z,25.09
2019-04-23T10:22:50.329Z,25.09
2019-04-23T10:23:49.616Z,25.01
2019-04-23T10:24:48.940Z,25.02
2019-04-23T10:25:49.946Z,25.11
2019-04-23T10:26:50.195Z,25.11
2019-04-23T10:28:49.760Z,25.12
2019-04-23T10:29:50.000Z,25.07
2019-04-23T10:30:49.146Z,25.17
2019-04-23T10:31:49.496Z,25.20
2019-04-23T10:32:49.579Z,25.14
2019-04-23T10:33:50.397Z,25.16
2019-04-23T10:35:01.598Z,25.14
2019-04-23T10:35:58.457Z,25.12
2019-04-23T10:36:49.588Z,25.14
2019-04-23T10:37:56.561Z,25.14
2019-04-23T10:38:55.994Z,25.16
2019-04-23T10:39:54.872Z,25.09
2019-04-23T10:40:50.233Z,25.12
2019-04-23T10:41:52.249Z,25.11
2019-04-23T10:42:51.796Z,25.20
2019-04-23T10:43:52.374Z,25.17
2019-04-23T10:44:52.148Z,25.14
2019-04-23T10:46:12.114Z,25.14
2019-04-23T10:47:15.215Z,25.20
2019-04-23T10:49:31.692Z,25.22
2019-04-23T10:50:24.757Z,25.17
2019-04-23T10:51:26.025Z,25.16
2019-04-23T10:54:26.386Z,25.26
2019-04-23T10:55:11.982Z,25.23
2019-04-23T10:56:21.407Z,25.20
2019-04-23T10:57:28.254Z,25.20
2019-04-23T10:59:21.259Z,25.23
2019-04-23T11:00:16.090Z,25.23
2019-04-23T11:01:23.268Z,25.20
2019-04-23T11:02:36.338Z,25.26
2019-04-23T11:03:35.334Z,25.22
2019-04-23T11:04:32.942Z,25.26
2019-04-23T11:05:37.755Z,25.24
2019-04-23T11:06:23.335Z,25.24
2019-04-23T11:07:29.856Z,25.23
2019-04-23T11:08:19.034Z,25.23
2019-04-23T11:09:34.810Z,25.19
2019-04-23T11:10:21.361Z,25.22
2019-04-23T11:11:25.513Z,25.30
2019-04-23T11:12:32.702Z,25.31
2019-04-23T11:13:25.617Z,25.34
2019-04-23T11:14:25.159Z,25.31
2019-04-23T11:15:26.446Z,25.31
2019-04-23T11:17:25.965Z,25.34
2019-04-23T11:18:24.663Z,25.38
2019-04-23T11:19:25.717Z,25.31
2019-04-23T11:21:28.324Z,25.38
2019-04-23T11:22:36.173Z,25.36
2019-04-23T11:23:19.201Z,25.34
2019-04-23T11:24:30.534Z,25.34
2019-04-23T11:26:26.407Z,25.39
2019-04-23T11:27:24.485Z,25.34
2019-04-23T11:28:33.313Z,25.41
2019-04-23T11:29:28.026Z,25.44
2019-04-23T11:32:41.159Z,25.44
2019-04-23T11:33:25.664Z,25.34
2019-04-23T11:34:34.177Z,25.41
2019-04-23T11:37:36.243Z,25.38
2019-04-23T11:37:58.722Z,25.42
2019-04-23T11:38:50.284Z,25.31
2019-04-23T11:39:24.312Z,25.44
2019-04-23T11:40:21.291Z,25.41
2019-04-23T11:41:27.765Z,25.41
2019-04-23T11:43:20.541Z,25.48
2019-04-23T11:46:43.534Z,25.48
2019-04-23T11:47:46.944Z,25.48
2019-04-23T11:49:34.748Z,25.48
2019-04-23T11:50:27.814Z,25.54
2019-04-23T11:51:07.307Z,25.48
2019-04-23T11:52:30.725Z,25.51
2019-04-23T11:53:29.701Z,25.56
2019-04-23T11:54:25.779Z,25.56
2019-04-23T11:55:37.546Z,25.59
2019-04-23T11:56:35.340Z,25.57
2019-04-23T11:57:31.024Z,25.56
2019-04-23T11:58:20.441Z,25.60
2019-04-23T11:59:31.662Z,25.57
2019-04-23T12:00:31.348Z,25.60
2019-04-23T12:02:22.059Z,25.56
2019-04-23T12:06:32.833Z,25.67
2019-04-23T12:07:26.277Z,25.61
2019-04-23T12:08:40.151Z,25.69
2019-04-23T12:12:23.897Z,25.66
2019-04-23T12:14:31.070Z,25.61
2019-04-23T12:15:25.376Z,25.67
2019-04-23T12:16:27.997Z,25.64
2019-04-23T12:17:38.122Z,25.64
2019-04-23T12:18:28.291Z,25.69
2019-04-23T12:19:51.319Z,25.63
2019-04-23T12:20:25.322Z,25.67
2019-04-23T12:21:35.723Z,25.74
2019-04-23T12:22:26.995Z,25.66
2019-04-23T12:24:51.706Z,25.67
2019-04-23T12:26:29.733Z,25.64
2019-04-23T12:27:27.439Z,25.67
2019-04-23T12:28:23.098Z,25.74
2019-04-23T12:29:27.416Z,25.74
2019-04-23T12:30:25.321Z,25.74
2019-04-23T12:31:26.689Z,25.75
2019-04-23T12:33:31.844Z,25.76
2019-04-23T12:34:27.077Z,25.78
2019-04-23T12:35:19.193Z,25.79
2019-04-23T12:36:28.294Z,25.78
2019-04-23T12:38:22.121Z,25.76
2019-04-23T12:39:30.786Z,25.72
2019-04-23T12:40:25.058Z,25.75
2019-04-23T12:41:26.506Z,25.82
2019-04-23T12:42:45.196Z,25.75
2019-04-23T12:43:18.914Z,25.82
2019-04-23T12:46:25.648Z,25.83
2019-04-23T12:47:38.145Z,25.86
2019-04-23T12:48:33.923Z,25.86
2019-04-23T12:49:45.881Z,25.89
2019-04-23T12:51:26.418Z,25.83
2019-04-23T12:52:28.478Z,25.83
2019-04-23T12:53:32.139Z,25.85
2019-04-23T12:54:31.928Z,25.91
2019-04-23T12:56:34.432Z,25.89
2019-04-23T12:57:32.266Z,25.96
2019-04-23T12:58:26.939Z,25.96
2019-04-23T12:59:25.298Z,25.91
2019-04-23T13:00:28.830Z,26.01
2019-04-23T13:01:27.558Z,25.98
2019-04-23T13:02:35.040Z,25.90
2019-04-23T13:03:28.758Z,25.90
2019-04-23T13:04:26.122Z,26.00
2019-04-23T13:05:31.385Z,26.01
2019-04-23T13:06:22.119Z,26.01
2019-04-23T13:07:33.721Z,26.00
2019-04-23T13:09:39.676Z,26.00
2019-04-23T13:11:23.268Z,26.06
2019-04-23T13:11:30.197Z,26.01
2019-04-23T13:12:40.014Z,26.00
2019-04-23T13:14:30.690Z,26.11
2019-04-23T13:15:22.665Z,26.12
2019-04-23T13:16:25.346Z,26.08
2019-04-23T13:17:30.054Z,26.17
2019-04-23T13:18:26.825Z,26.20
2019-04-23T13:19:33.413Z,26.19
2019-04-23T13:20:23.592Z,26.16
2019-04-23T13:21:47.582Z,26.27
2019-04-23T13:22:31.521Z,26.29
2019-04-23T13:23:22.253Z,26.31
2019-04-23T13:24:26.007Z,26.20
2019-04-23T13:25:32.552Z,26.36
2019-04-23T13:26:09.662Z,26.27
2019-04-23T13:27:29.378Z,26.31
2019-04-23T13:29:32.537Z,26.38
2019-04-23T13:30:31.596Z,26.34
2019-04-23T13:31:36.312Z,26.29
2019-04-23T13:32:29.285Z,26.49
2019-04-23T13:35:42.972Z,26.49
2019-04-23T13:37:29.395Z,26.54
2019-04-23T13:38:35.061Z,26.59
2019-04-23T13:39:30.270Z,26.61
2019-04-23T13:40:31.879Z,26.54
2019-04-23T13:41:20.239Z,26.60
2019-04-23T13:42:34.966Z,26.60
2019-04-23T13:44:27.668Z,26.73
2019-04-23T13:45:49.767Z,26.73
2019-04-23T13:46:23.073Z,26.83
2019-04-23T13:47:50.817Z,26.88
2019-04-23T13:48:30.100Z,26.90
2019-04-23T13:49:26.320Z,26.93
2019-04-23T13:50:38.546Z,26.98
2019-04-23T13:51:25.977Z,27.02
2019-04-23T13:52:51.551Z,27.06
2019-04-23T13:53:35.496Z,27.03
2019-04-23T13:54:46.634Z,27.20
2019-04-23T13:55:24.340Z,27.21
2019-04-23T13:58:22.594Z,27.30
2019-04-23T13:59:29.051Z,27.27
2019-04-23T14:00:34.777Z,27.34
2019-04-23T14:02:36.933Z,27.43
2019-04-23T14:03:30.309Z,27.43
2019-04-23T14:04:38.228Z,27.38
2019-04-23T14:05:29.112Z,27.42
2019-04-23T14:06:29.361Z,27.43
2019-04-23T14:07:34.628Z,27.55
2019-04-23T14:08:45.089Z,27.49
2019-04-23T14:09:41.843Z,27.55
2019-04-23T14:10:39.721Z,27.61
2019-04-23T14:12:34.843Z,27.72
2019-04-23T14:14:34.498Z,27.80
2019-04-23T14:15:36.884Z,27.84
2019-04-23T14:17:38.040Z,27.90
2019-04-23T14:19:16.462Z,27.90
2019-04-23T14:20:28.055Z,28.02
2019-04-23T14:23:39.792Z,28.03
2019-04-23T14:25:50.546Z,28.05
2019-04-23T14:27:26.570Z,28.14
2019-04-23T14:28:28.906Z,28.13
2019-04-23T14:29:28.125Z,28.09
2019-04-23T14:30:51.013Z,28.20
2019-04-23T14:31:21.890Z,28.20
2019-04-23T14:33:36.996Z,28.20
2019-04-23T14:34:31.265Z,28.24
2019-04-23T14:35:40.647Z,28.20
2019-04-23T14:36:25.355Z,28.20
2019-04-23T14:37:24.558Z,28.24
2019-04-23T14:39:28.694Z,28.20
2019-04-23T14:40:37.489Z,28.20
2019-04-23T14:41:26.156Z,28.23
2019-04-23T14:42:33.371Z,28.24
2019-04-23T14:43:49.300Z,28.23
2019-04-23T14:44:23.729Z,28.18
2019-04-23T14:45:46.758Z,28.24
2019-04-23T14:46:43.789Z,28.27
2019-04-23T14:47:31.079Z,28.25
2019-04-23T14:48:23.121Z,28.27
2019-04-23T14:50:32.002Z,28.27
2019-04-23T14:51:47.782Z,28.24
2019-04-23T14:52:28.687Z,28.23
2019-04-23T14:53:30.410Z,28.21
2019-04-23T14:55:04.135Z,28.24
2019-04-23T14:57:34.114Z,28.20
2019-04-23T14:59:16.334Z,28.32
2019-04-23T15:00:33.498Z,28.25
2019-04-23T15:02:37.268Z,28.32
2019-04-23T15:03:32.527Z,28.39
2019-04-23T15:04:27.257Z,28.36
2019-04-23T15:07:31.225Z,28.45
2019-04-23T15:08:32.303Z,28.45
2019-04-23T15:09:52.739Z,28.38
2019-04-23T15:10:34.770Z,28.51
2019-04-23T15:11:34.634Z,28.48
2019-04-23T15:12:30.452Z,28.50
2019-04-23T15:13:28.080Z,28.54
2019-04-23T15:14:34.317Z,28.54
2019-04-23T15:15:27.043Z,28.54
2019-04-23T15:16:32.424Z,28.55
2019-04-23T15:17:28.910Z,28.55
2019-04-23T15:18:41.175Z,28.70
2019-04-23T15:19:37.691Z,28.62
2019-04-23T15:20:32.987Z,28.60
2019-04-23T15:23:47.484Z,28.74
2019-04-23T15:24:27.960Z,28.72
2019-04-23T15:25:32.230Z,28.76
2019-04-23T15:28:08.863Z,28.79
2019-04-23T15:29:13.326Z,28.77
2019-04-23T15:30:21.573Z,28.76
2019-04-23T15:32:34.938Z,28.82
2019-04-23T15:33:38.943Z,28.80
2019-04-23T15:34:25.549Z,28.83
2019-04-23T15:35:55.491Z,28.79
2019-04-23T15:37:39.649Z,28.80
2019-04-23T15:38:43.310Z,28.77
2019-04-23T15:40:26.923Z,28.79
2019-04-23T15:41:40.498Z,28.85
2019-04-23T15:43:30.552Z,28.88
2019-04-23T15:44:25.254Z,28.85
2019-04-23T15:45:32.677Z,28.95
2019-04-23T15:46:37.115Z,28.80
2019-04-23T15:47:32.684Z,28.83
2019-04-23T15:48:31.969Z,28.85
2019-04-23T15:49:26.615Z,28.92
2019-04-23T15:51:35.446Z,28.87
2019-04-23T15:53:24.565Z,29.00
2019-04-23T15:54:35.350Z,28.95
2019-04-23T15:55:27.791Z,28.89
2019-04-23T15:57:45.046Z,28.95
2019-04-23T15:58:37.077Z,28.94
2019-04-23T15:59:34.957Z,28.92
2019-04-23T16:02:02.087Z,28.85
2019-04-23T16:03:01.974Z,28.87
2019-04-23T16:04:03.405Z,28.92
2019-04-23T16:05:03.639Z,28.80
2019-04-23T16:06:02.607Z,28.85
2019-04-23T16:07:02.474Z,28.79
2019-04-23T16:08:39.036Z,28.85
2019-04-23T16:09:20.985Z,28.85
2019-04-23T16:10:33.695Z,28.83
2019-04-23T16:11:41.336Z,28.82
2019-04-23T16:12:27.425Z,28.76
2019-04-23T16:13:38.883Z,28.80
2019-04-23T16:14:37.203Z,28.73
2019-04-23T16:15:25.752Z,28.70
2019-04-23T16:17:35.808Z,28.70
2019-04-23T16:18:35.254Z,28.65
2019-04-23T16:21:49.712Z,28.65
2019-04-23T16:22:34.125Z,28.65
2019-04-23T16:23:22.794Z,28.62
2019-04-23T16:24:50.316Z,28.51
2019-04-23T16:25:43.586Z,28.52
2019-04-23T16:27:20.223Z,28.52
2019-04-23T16:28:42.112Z,28.54
2019-04-23T16:29:46.945Z,28.52
2019-04-23T16:30:49.083Z,28.43
2019-04-23T16:31:34.758Z,28.50
2019-04-23T16:32:37.575Z,28.52
2019-04-23T16:33:25.882Z,28.45
2019-04-23T16:34:28.620Z,28.39
2019-04-23T16:35:34.614Z,28.40
2019-04-23T16:36:31.946Z,28.39
2019-04-23T16:37:49.223Z,28.35
2019-04-23T16:38:45.642Z,28.42
2019-04-23T16:39:31.146Z,28.40
2019-04-23T16:40:37.512Z,28.32
2019-04-23T16:41:30.847Z,28.36
2019-04-23T16:42:34.362Z,28.30
2019-04-23T16:43:30.979Z,28.21